Cpo Sweden — 2AJQ3 — position and weather

sailwx.info

Track history (hours):
 
Tides and Currents Weather Stations Pressure Air Temp Water Temp Dewpoint Dewpoint Depression Visibility Wind Speed Wind Dir Waves Ship Positions

Cpo Sweden

Last reported at 2017-Sep-06 18:00 UTC. Time now 2017-Sep-22 02:52 UTC.
Position N 27°56' W 016°24'.
Warning: this ship's position is 15 days out of date.

Length 185 m; draft 10.5 m.

Type: Ship. MMSI: 235060253.

Date/timePositionNaut miles runAvg speedWind from/ knotsBaromVisibWave heightAir tempDewpointWater temp
2017-Sep-06 18:00N 27°56' W 016°24'1014.2
2017-Sep-06 17:19N 28°04' W 016°16'514.2
2017-Sep-06 16:58N 28°07' W 016°13'714.1
2017-Sep-06 16:30N 28°13' W 016°08'813.8
2017-Sep-06 15:53N 28°19' W 016°02'513.5
2017-Sep-06 15:30N 28°23' W 015°58'713.3
2017-Sep-06 15:00N 28°28' W 015°54'713.0
2017-Sep-06 14:30N 28°33' W 015°49'612.9
2017-Sep-06 14:00N 28°38' W 015°44'712.9
2017-Sep-06 13:30N 28°43' W 015°40'612.4
2017-Sep-06 13:00N 28°49' W 015°36'612.5
2017-Sep-06 12:30N 28°54' W 015°34'612.7
2017-Sep-06 12:00N 29°01' W 015°31'612.5
2017-Sep-06 11:30N 29°06' W 015°29'612.2
2017-Sep-06 11:00N 29°12' W 015°27'712.4
2017-Sep-06 10:28N 29°19' W 015°25'612.6
2017-Sep-06 10:01N 29°24' W 015°23'712.6
2017-Sep-06 09:29N 29°30' W 015°21'612.7
2017-Sep-06 09:00N 29°36' W 015°18'612.8
2017-Sep-06 08:31N 29°42' W 015°16'612.7
2017-Sep-06 08:01N 29°48' W 015°14'612.6
2017-Sep-06 07:30N 29°54' W 015°12'612.5
2017-Sep-06 07:00N 30°01' W 015°10'612.4
2017-Sep-06 06:29N 30°07' W 015°08'613.0
2017-Sep-06 06:00N 30°13' W 015°06'713.1
2017-Sep-06 05:28N 30°19' W 015°03'3713.2
2017-Sep-06 02:40N 30°54' W 014°50'813.2
2017-Sep-06 02:02N 31°02' W 014°47'013.3
2017-Sep-06 02:00N 31°03' W 014°47'1713.2
2017-Sep-06 00:41N 31°19' W 014°41'413.0
2017-Sep-06 00:24N 31°23' W 014°39'713.1
2017-Sep-05 23:54N 31°29' W 014°37'513.1
2017-Sep-05 23:30N 31°34' W 014°36'713.2
2017-Sep-05 23:00N 31°41' W 014°33'713.1
2017-Sep-05 22:29N 31°47' W 014°31'46513.0
2017-Sep-04 10:37N 39°11' W 011°40'512.8
2017-Sep-04 10:15N 39°15' W 011°38'412.9
2017-Sep-04 09:56N 39°19' W 011°36'4212.7
2017-Sep-04 06:36N 39°60' W 011°20'58812.3
2017-Sep-02 07:00N 48°56' W 005°43'1613.5
2017-Sep-02 05:49N 49°04' W 005°22'5812.8
2017-Sep-02 01:17N 49°33' W 004°05'412.6
2017-Sep-02 00:58N 49°35' W 004°00'712.9
2017-Sep-02 00:24N 49°39' W 003°50'513.0
2017-Sep-01 23:59N 49°42' W 003°43'613.3
2017-Sep-01 23:30N 49°45' W 003°35'713.3
2017-Sep-01 23:00N 49°48' W 003°26'713.6
2017-Sep-01 22:30N 49°51' W 003°16'713.8
2017-Sep-01 22:00N 49°55' W 003°07'713.8
2017-Sep-01 21:30N 49°59' W 002°58'713.6
2017-Sep-01 21:00N 50°00' W 002°48'713.4
2017-Sep-01 20:31N 50°02' W 002°38'2112.8
2017-Sep-01 18:52N 50°08' W 002°06'411.8
2017-Sep-01 18:30N 50°09' W 002°00'611.5
2017-Sep-01 18:00N 50°11' W 001°51'611.3
2017-Sep-01 17:30N 50°12' W 001°43'611.1
2017-Sep-01 17:00N 50°14' W 001°35'611.1
2017-Sep-01 16:30N 50°15' W 001°26'611.2
2017-Sep-01 15:59N 50°17' W 001°17'911.5
2017-Sep-01 15:10N 50°19' W 001°03'212.1
2017-Sep-01 15:00N 50°20' W 001°00'2512.9
2017-Sep-01 13:04N 50°27' W 000°23'113.4
2017-Sep-01 13:00N 50°27' W 000°22'713.5
2017-Sep-01 12:29N 50°29' W 000°11'713.7
2017-Sep-01 12:00N 50°30' W 000°01'713.8
2017-Sep-01 11:30N 50°32' E 000°10'713.9
2017-Sep-01 11:01N 50°34' E 000°20'713.8
2017-Sep-01 10:31N 50°36' E 000°30'713.4
2017-Sep-01 10:01N 50°39' E 000°39'713.4
2017-Sep-01 09:30N 50°44' E 000°48'612.8
2017-Sep-01 09:00N 50°47' E 000°56'612.7
2017-Sep-01 08:30N 50°51' E 001°04'712.4
2017-Sep-01 07:58N 50°55' E 001°12'612.1
2017-Sep-01 07:28N 50°59' E 001°19'511.9
2017-Sep-01 07:00N 51°03' E 001°25'612.7
2017-Sep-01 06:31N 51°07' E 001°33'612.9
2017-Sep-01 06:01N 51°11' E 001°41'612.9
2017-Sep-01 05:31N 51°16' E 001°48'713.5
2017-Sep-01 05:01N 51°22' E 001°54'713.7
2017-Sep-01 04:31N 51°27' E 002°01'714.0
2017-Sep-01 04:00N 51°32' E 002°09'714.0
2017-Sep-01 03:30N 51°37' E 002°17'6111.9
2017-Aug-31 22:24N 52°04' E 003°45'511.9
2017-Aug-31 22:00N 52°04' E 003°53'4 8.6
2017-Aug-31 21:30N 52°01' E 003°58'612.0
2017-Aug-31 21:00N 51°58' E 004°07'4 7.6
2017-Aug-31 20:30N 51°56' E 004°11'0 0.5
2017-Aug-31 19:50N 51°56' E 004°12'0 0.0
2017-Aug-31 19:26N 51°56' E 004°12'0 0.0
2017-Aug-31 18:59N 51°56' E 004°12'0 0.0
2017-Aug-31 18:29N 51°56' E 004°12'0 0.0
2017-Aug-31 17:59N 51°56' E 004°12'0 0.0
2017-Aug-31 17:28N 51°56' E 004°12'0 0.0
2017-Aug-31 16:59N 51°56' E 004°12'0 0.0
2017-Aug-31 16:29N 51°56' E 004°12'0 0.0
2017-Aug-31 15:59N 51°56' E 004°12'0 0.0
2017-Aug-31 15:29N 51°56' E 004°12'0 0.0
2017-Aug-31 14:52N 51°56' E 004°12'0 0.0
2017-Aug-31 14:29N 51°56' E 004°12'0 0.0
2017-Aug-31 13:53N 51°56' E 004°12'0 0.0
2017-Aug-31 13:28N 51°56' E 004°12'0 0.0
2017-Aug-31 12:58N 51°56' E 004°12'0 0.0
2017-Aug-31 12:28N 51°56' E 004°12'0 0.0
2017-Aug-31 11:55N 51°56' E 004°12'0 0.0
2017-Aug-31 11:29N 51°56' E 004°12'0 0.0
2017-Aug-31 10:59N 51°56' E 004°12'0 0.0
2017-Aug-31 10:28N 51°56' E 004°12'0 0.0
2017-Aug-31 09:58N 51°56' E 004°12'0 0.0
2017-Aug-31 09:26N 51°56' E 004°12'0 0.0
2017-Aug-31 08:56N 51°56' E 004°12'0 0.0
2017-Aug-31 08:28N 51°56' E 004°12'0 0.0
2017-Aug-31 07:50N 51°56' E 004°12'0 0.0
2017-Aug-31 07:28N 51°56' E 004°12'0 0.0
2017-Aug-31 06:40N 51°56' E 004°12'0 0.0
2017-Aug-31 06:26N 51°56' E 004°12'0 0.0
2017-Aug-31 05:52N 51°56' E 004°12'0 0.0
2017-Aug-31 05:25N 51°56' E 004°12'0 0.0
2017-Aug-31 04:58N 51°56' E 004°12'0 0.0
2017-Aug-31 04:28N 51°56' E 004°12'0 0.0
2017-Aug-31 03:58N 51°56' E 004°12'0 0.0
2017-Aug-31 03:29N 51°56' E 004°12'0 0.0
2017-Aug-31 02:58N 51°56' E 004°12'0 0.0
2017-Aug-31 02:28N 51°56' E 004°12'0 0.0
2017-Aug-31 01:58N 51°56' E 004°12'0 0.0
2017-Aug-31 01:28N 51°56' E 004°12'0 0.0
2017-Aug-31 00:58N 51°56' E 004°12'0 0.0
2017-Aug-31 00:28N 51°56' E 004°12'0 0.0
2017-Aug-30 23:58N 51°56' E 004°12'0 0.0
2017-Aug-30 23:25N 51°56' E 004°12'0 0.0
2017-Aug-30 22:58N 51°56' E 004°12'0 0.0
2017-Aug-30 22:28N 51°56' E 004°12'0 0.0
2017-Aug-30 21:58N 51°56' E 004°12'0 0.0
2017-Aug-30 21:29N 51°56' E 004°12'0 0.0
2017-Aug-30 20:52N 51°56' E 004°12'0 0.0
2017-Aug-30 20:25N 51°56' E 004°12'0 0.0
2017-Aug-30 19:58N 51°56' E 004°12'0 0.0
2017-Aug-30 19:29N 51°56' E 004°12'0 0.0
2017-Aug-30 18:58N 51°56' E 004°12'0 0.0
2017-Aug-30 18:28N 51°56' E 004°12'0 0.0
2017-Aug-30 17:58N 51°56' E 004°12'0 0.0
2017-Aug-30 17:28N 51°56' E 004°12'0 0.0
2017-Aug-30 16:58N 51°56' E 004°12'0 0.0
2017-Aug-30 16:25N 51°56' E 004°12'0 0.0
2017-Aug-30 16:00N 51°56' E 004°12'1 1.7
2017-Aug-30 15:28N 51°55' E 004°13'0 0.0
2017-Aug-30 14:58N 51°55' E 004°13'0 0.0
2017-Aug-30 14:28N 51°55' E 004°13'0 0.0
2017-Aug-30 13:58N 51°55' E 004°13'0 0.0
2017-Aug-30 13:28N 51°55' E 004°13'0 0.0
2017-Aug-30 12:58N 51°55' E 004°13'0 0.0
2017-Aug-30 12:28N 51°55' E 004°13'0 0.0
2017-Aug-30 11:58N 51°55' E 004°13'0 0.0
2017-Aug-30 11:22N 51°55' E 004°13'0 0.0
2017-Aug-30 10:58N 51°55' E 004°13'0 0.0
2017-Aug-30 10:28N 51°55' E 004°13'0 0.0
2017-Aug-30 09:58N 51°55' E 004°13'0 0.0
2017-Aug-30 09:28N 51°55' E 004°13'0 0.0
2017-Aug-30 08:58N 51°55' E 004°13'0 0.0
2017-Aug-30 08:28N 51°55' E 004°13'0 0.0
2017-Aug-30 07:58N 51°55' E 004°13'0 0.0
2017-Aug-30 07:22N 51°55' E 004°13'0 0.0
2017-Aug-30 06:55N 51°55' E 004°13'0 0.0
2017-Aug-30 06:28N 51°55' E 004°13'0 0.0
2017-Aug-30 05:55N 51°55' E 004°13'0 0.0
2017-Aug-30 05:28N 51°55' E 004°13'0 0.0
2017-Aug-30 04:58N 51°55' E 004°13'0 0.0
2017-Aug-30 04:28N 51°55' E 004°13'0 0.0
2017-Aug-30 03:58N 51°55' E 004°13'0 0.0
2017-Aug-30 03:28N 51°55' E 004°13'0 0.0
2017-Aug-30 02:58N 51°55' E 004°13'0 0.0
2017-Aug-30 02:28N 51°55' E 004°13'0 0.0
2017-Aug-30 01:58N 51°55' E 004°13'0 0.0
2017-Aug-30 01:25N 51°55' E 004°13'0 0.0
2017-Aug-30 00:58N 51°55' E 004°13'0 0.0
2017-Aug-30 00:28N 51°55' E 004°13'0 0.0
2017-Aug-29 23:58N 51°55' E 004°13'0 0.0
2017-Aug-29 23:25N 51°55' E 004°13'0 0.0
2017-Aug-29 22:58N 51°55' E 004°13'0 0.0
2017-Aug-29 22:28N 51°55' E 004°13'0 0.0
2017-Aug-29 21:58N 51°55' E 004°13'0 0.0
2017-Aug-29 21:28N 51°55' E 004°13'0 0.0
2017-Aug-29 20:58N 51°55' E 004°13'0 0.0
2017-Aug-29 20:25N 51°55' E 004°13'0 0.9
2017-Aug-29 20:01N 51°55' E 004°13'3 6.8
2017-Aug-29 19:31N 51°58' E 004°08'611.8
2017-Aug-29 19:00N 51°60' E 003°60'612.8
2017-Aug-29 18:30N 52°00' E 003°49'612.1
2017-Aug-29 18:00N 51°58' E 003°40'612.7
2017-Aug-29 17:30N 51°56' E 003°30'4 7.6
2017-Aug-29 16:59N 51°54' E 003°25'0 0.1
2017-Aug-29 16:29N 51°54' E 003°25'0 0.0
2017-Aug-29 15:59N 51°54' E 003°25'0 0.0
2017-Aug-29 15:29N 51°54' E 003°25'0 0.0
2017-Aug-29 14:59N 51°54' E 003°25'0 0.0
2017-Aug-29 14:29N 51°54' E 003°25'0 0.0
2017-Aug-29 13:59N 51°54' E 003°25'0 0.0
2017-Aug-29 13:26N 51°54' E 003°25'0 0.0
2017-Aug-29 12:53N 51°54' E 003°25'0 0.0
2017-Aug-29 12:17N 51°54' E 003°25'0 0.1
2017-Aug-29 11:59N 51°54' E 003°25'0 0.0
2017-Aug-29 11:23N 51°54' E 003°25'0 0.1
2017-Aug-29 10:59N 51°54' E 003°25'0 0.2
2017-Aug-29 10:23N 51°54' E 003°25'0 0.1
2017-Aug-29 09:56N 51°54' E 003°25'0 0.0
2017-Aug-29 09:17N 51°54' E 003°25'0 0.0
2017-Aug-29 08:47N 51°54' E 003°25'0 0.0
2017-Aug-29 07:44N 51°54' E 003°25'0 0.0
2017-Aug-29 07:30N 51°54' E 003°25'0 0.0
2017-Aug-29 07:00N 51°54' E 003°25'0 0.0
2017-Aug-29 06:30N 51°54' E 003°25'0 0.0
2017-Aug-29 06:00N 51°54' E 003°25'0 0.0
2017-Aug-29 05:30N 51°54' E 003°25'0 0.1
2017-Aug-29 05:00N 51°54' E 003°25'0 0.3
2017-Aug-29 04:30N 51°54' E 003°25'0 0.0
2017-Aug-29 03:55N 51°54' E 003°25'0 0.0
2017-Aug-29 03:30N 51°54' E 003°25'0 0.0
2017-Aug-29 03:00N 51°54' E 003°25'0 0.0
2017-Aug-29 02:30N 51°54' E 003°25'0 0.0
2017-Aug-29 02:00N 51°54' E 003°25'0 0.0
2017-Aug-29 01:30N 51°54' E 003°25'0 0.0
2017-Aug-29 01:00N 51°54' E 003°25'0 0.0
2017-Aug-29 00:30N 51°54' E 003°25'0 0.0
2017-Aug-29 00:00N 51°54' E 003°25'0 0.0
2017-Aug-28 23:30N 51°54' E 003°25'0 0.1
2017-Aug-28 23:00N 51°54' E 003°25'0 0.1
2017-Aug-28 22:30N 51°54' E 003°25'0 0.1
2017-Aug-28 22:00N 51°54' E 003°25'0 0.0
2017-Aug-28 21:30N 51°54' E 003°25'0 0.1
2017-Aug-28 21:00N 51°54' E 003°25'0 0.0
2017-Aug-28 20:30N 51°54' E 003°25'0 0.0
2017-Aug-28 20:00N 51°54' E 003°25'0 0.0
2017-Aug-28 19:30N 51°54' E 003°25'0 0.0
2017-Aug-28 19:00N 51°54' E 003°25'0 0.0
2017-Aug-28 18:30N 51°54' E 003°25'0 0.0
2017-Aug-28 18:00N 51°54' E 003°25'0 0.0
2017-Aug-28 17:30N 51°54' E 003°25'0 0.0
2017-Aug-28 17:00N 51°54' E 003°25'2 3.8
2017-Aug-28 16:30N 51°54' E 003°22'712.9
2017-Aug-28 15:59N 51°52' E 003°12'713.7
2017-Aug-28 15:30N 51°50' E 003°01'713.4
2017-Aug-28 15:00N 51°48' E 002°51'713.1
2017-Aug-28 14:30N 51°46' E 002°41'612.2
2017-Aug-28 14:00N 51°43' E 002°33'612.4
2017-Aug-28 13:30N 51°38' E 002°26'612.1
2017-Aug-28 13:00N 51°34' E 002°20'611.8
2017-Aug-28 12:30N 51°29' E 002°13'611.7
2017-Aug-28 12:00N 51°25' E 002°07'612.1
2017-Aug-28 11:30N 51°19' E 002°07'611.6
2017-Aug-28 11:00N 51°13' E 002°04'510.9
2017-Aug-28 10:30N 51°11' E 001°56'611.6
2017-Aug-28 10:00N 51°08' E 001°48'611.5
2017-Aug-28 09:30N 51°05' E 001°41'611.8
2017-Aug-28 09:00N 51°00' E 001°35'612.4
2017-Aug-28 08:30N 50°56' E 001°28'612.5
2017-Aug-28 08:00N 50°50' E 001°24'713.1
2017-Aug-28 07:30N 50°44' E 001°22'612.7
2017-Aug-28 07:00N 50°39' E 001°15'713.3
2017-Aug-28 06:30N 50°34' E 001°07'913.0
2017-Aug-28 05:48N 50°29' E 000°55'413.1
2017-Aug-28 05:30N 50°28' E 000°50'713.0
2017-Aug-28 04:57N 50°26' E 000°39'612.9
2017-Aug-28 04:30N 50°25' E 000°30'613.0
2017-Aug-28 04:00N 50°23' E 000°20'713.1
2017-Aug-28 03:30N 50°21' E 000°10'713.5
2017-Aug-28 03:00N 50°19' E 000°00'713.9
2017-Aug-28 02:31N 50°17' W 000°10'714.3
2017-Aug-28 02:00N 50°15' W 000°21'714.9
2017-Aug-28 01:31N 50°13' W 000°32'815.4
2017-Aug-28 01:01N 50°11' W 000°44'815.8
2017-Aug-28 00:30N 50°09' W 000°56'816.0
2017-Aug-28 00:00N 50°06' W 001°07'816.2
2017-Aug-27 23:31N 50°04' W 001°19'816.4
2017-Aug-27 23:01N 50°02' W 001°32'815.9
2017-Aug-27 22:31N 50°01' W 001°44'815.8
2017-Aug-27 22:01N 49°59' W 001°56'815.3
2017-Aug-27 21:30N 49°57' W 002°07'714.4
2017-Aug-27 21:01N 49°55' W 002°18'713.8
2017-Aug-27 20:30N 49°53' W 002°29'713.4
2017-Aug-27 20:00N 49°52' W 002°39'713.2
2017-Aug-27 19:30N 49°50' W 002°48'612.8
2017-Aug-27 19:00N 49°47' W 002°57'612.6
2017-Aug-27 18:30N 49°44' W 003°06'612.5
2017-Aug-27 18:00N 49°41' W 003°14'  
Track history (hours):
 
Tides and Currents Weather Stations Pressure Air Temp Water Temp Dewpoint Dewpoint Depression Visibility Wind Speed Wind Dir Waves Ship Positions

Cpo Sweden

Last reported at 2017-Sep-06 18:00 UTC. Time now 2017-Sep-22 02:52 UTC.
Position N 27°56' W 016°24'.
Warning: this ship's position is 15 days out of date.

Length 185 m; draft 10.5 m.

Type: Ship. MMSI: 235060253.

Date/timePositionNaut miles runAvg speedWind from/ knotsBaromVisibWave heightAir tempDewpointWater temp
2017-Sep-06 18:00N 27°56' W 016°24'1014.2
2017-Sep-06 17:19N 28°04' W 016°16'514.2
2017-Sep-06 16:58N 28°07' W 016°13'714.1
2017-Sep-06 16:30N 28°13' W 016°08'813.8
2017-Sep-06 15:53N 28°19' W 016°02'513.5
2017-Sep-06 15:30N 28°23' W 015°58'713.3
2017-Sep-06 15:00N 28°28' W 015°54'713.0
2017-Sep-06 14:30N 28°33' W 015°49'612.9
2017-Sep-06 14:00N 28°38' W 015°44'712.9
2017-Sep-06 13:30N 28°43' W 015°40'612.4
2017-Sep-06 13:00N 28°49' W 015°36'612.5
2017-Sep-06 12:30N 28°54' W 015°34'612.7
2017-Sep-06 12:00N 29°01' W 015°31'612.5
2017-Sep-06 11:30N 29°06' W 015°29'612.2
2017-Sep-06 11:00N 29°12' W 015°27'712.4
2017-Sep-06 10:28N 29°19' W 015°25'612.6
2017-Sep-06 10:01N 29°24' W 015°23'712.6
2017-Sep-06 09:29N 29°30' W 015°21'612.7
2017-Sep-06 09:00N 29°36' W 015°18'612.8
2017-Sep-06 08:31N 29°42' W 015°16'612.7
2017-Sep-06 08:01N 29°48' W 015°14'612.6
2017-Sep-06 07:30N 29°54' W 015°12'612.5
2017-Sep-06 07:00N 30°01' W 015°10'612.4
2017-Sep-06 06:29N 30°07' W 015°08'613.0
2017-Sep-06 06:00N 30°13' W 015°06'713.1
2017-Sep-06 05:28N 30°19' W 015°03'3713.2
2017-Sep-06 02:40N 30°54' W 014°50'813.2
2017-Sep-06 02:02N 31°02' W 014°47'013.3
2017-Sep-06 02:00N 31°03' W 014°47'1713.2
2017-Sep-06 00:41N 31°19' W 014°41'413.0
2017-Sep-06 00:24N 31°23' W 014°39'713.1
2017-Sep-05 23:54N 31°29' W 014°37'513.1
2017-Sep-05 23:30N 31°34' W 014°36'713.2
2017-Sep-05 23:00N 31°41' W 014°33'713.1
2017-Sep-05 22:29N 31°47' W 014°31'46513.0
2017-Sep-04 10:37N 39°11' W 011°40'512.8
2017-Sep-04 10:15N 39°15' W 011°38'412.9
2017-Sep-04 09:56N 39°19' W 011°36'4212.7
2017-Sep-04 06:36N 39°60' W 011°20'58812.3
2017-Sep-02 07:00N 48°56' W 005°43'1613.5
2017-Sep-02 05:49N 49°04' W 005°22'5812.8
2017-Sep-02 01:17N 49°33' W 004°05'412.6
2017-Sep-02 00:58N 49°35' W 004°00'712.9
2017-Sep-02 00:24N 49°39' W 003°50'513.0
2017-Sep-01 23:59N 49°42' W 003°43'613.3
2017-Sep-01 23:30N 49°45' W 003°35'713.3
2017-Sep-01 23:00N 49°48' W 003°26'713.6
2017-Sep-01 22:30N 49°51' W 003°16'713.8
2017-Sep-01 22:00N 49°55' W 003°07'713.8
2017-Sep-01 21:30N 49°59' W 002°58'713.6
2017-Sep-01 21:00N 50°00' W 002°48'713.4
2017-Sep-01 20:31N 50°02' W 002°38'2112.8
2017-Sep-01 18:52N 50°08' W 002°06'411.8
2017-Sep-01 18:30N 50°09' W 002°00'611.5
2017-Sep-01 18:00N 50°11' W 001°51'611.3
2017-Sep-01 17:30N 50°12' W 001°43'611.1
2017-Sep-01 17:00N 50°14' W 001°35'611.1
2017-Sep-01 16:30N 50°15' W 001°26'611.2
2017-Sep-01 15:59N 50°17' W 001°17'911.5
2017-Sep-01 15:10N 50°19' W 001°03'212.1
2017-Sep-01 15:00N 50°20' W 001°00'2512.9
2017-Sep-01 13:04N 50°27' W 000°23'113.4
2017-Sep-01 13:00N 50°27' W 000°22'713.5
2017-Sep-01 12:29N 50°29' W 000°11'713.7
2017-Sep-01 12:00N 50°30' W 000°01'713.8
2017-Sep-01 11:30N 50°32' E 000°10'713.9
2017-Sep-01 11:01N 50°34' E 000°20'713.8
2017-Sep-01 10:31N 50°36' E 000°30'713.4
2017-Sep-01 10:01N 50°39' E 000°39'713.4
2017-Sep-01 09:30N 50°44' E 000°48'612.8
2017-Sep-01 09:00N 50°47' E 000°56'612.7
2017-Sep-01 08:30N 50°51' E 001°04'712.4
2017-Sep-01 07:58N 50°55' E 001°12'612.1
2017-Sep-01 07:28N 50°59' E 001°19'511.9
2017-Sep-01 07:00N 51°03' E 001°25'612.7
2017-Sep-01 06:31N 51°07' E 001°33'612.9
2017-Sep-01 06:01N 51°11' E 001°41'612.9
2017-Sep-01 05:31N 51°16' E 001°48'713.5
2017-Sep-01 05:01N 51°22' E 001°54'713.7
2017-Sep-01 04:31N 51°27' E 002°01'714.0
2017-Sep-01 04:00N 51°32' E 002°09'714.0
2017-Sep-01 03:30N 51°37' E 002°17'6111.9
2017-Aug-31 22:24N 52°04' E 003°45'511.9
2017-Aug-31 22:00N 52°04' E 003°53'4 8.6
2017-Aug-31 21:30N 52°01' E 003°58'612.0
2017-Aug-31 21:00N 51°58' E 004°07'4 7.6
2017-Aug-31 20:30N 51°56' E 004°11'0 0.5
2017-Aug-31 19:50N 51°56' E 004°12'0 0.0
2017-Aug-31 19:26N 51°56' E 004°12'0 0.0
2017-Aug-31 18:59N 51°56' E 004°12'0 0.0
2017-Aug-31 18:29N 51°56' E 004°12'0 0.0
2017-Aug-31 17:59N 51°56' E 004°12'0 0.0
2017-Aug-31 17:28N 51°56' E 004°12'0 0.0
2017-Aug-31 16:59N 51°56' E 004°12'0 0.0
2017-Aug-31 16:29N 51°56' E 004°12'0 0.0
2017-Aug-31 15:59N 51°56' E 004°12'0 0.0
2017-Aug-31 15:29N 51°56' E 004°12'0 0.0
2017-Aug-31 14:52N 51°56' E 004°12'0 0.0
2017-Aug-31 14:29N 51°56' E 004°12'0 0.0
2017-Aug-31 13:53N 51°56' E 004°12'0 0.0
2017-Aug-31 13:28N 51°56' E 004°12'0 0.0
2017-Aug-31 12:58N 51°56' E 004°12'0 0.0
2017-Aug-31 12:28N 51°56' E 004°12'0 0.0
2017-Aug-31 11:55N 51°56' E 004°12'0 0.0
2017-Aug-31 11:29N 51°56' E 004°12'0 0.0
2017-Aug-31 10:59N 51°56' E 004°12'0 0.0
2017-Aug-31 10:28N 51°56' E 004°12'0 0.0
2017-Aug-31 09:58N 51°56' E 004°12'0 0.0
2017-Aug-31 09:26N 51°56' E 004°12'0 0.0
2017-Aug-31 08:56N 51°56' E 004°12'0 0.0
2017-Aug-31 08:28N 51°56' E 004°12'0 0.0
2017-Aug-31 07:50N 51°56' E 004°12'0 0.0
2017-Aug-31 07:28N 51°56' E 004°12'0 0.0
2017-Aug-31 06:40N 51°56' E 004°12'0 0.0
2017-Aug-31 06:26N 51°56' E 004°12'0 0.0
2017-Aug-31 05:52N 51°56' E 004°12'0 0.0
2017-Aug-31 05:25N 51°56' E 004°12'0 0.0
2017-Aug-31 04:58N 51°56' E 004°12'0 0.0
2017-Aug-31 04:28N 51°56' E 004°12'0 0.0
2017-Aug-31 03:58N 51°56' E 004°12'0 0.0
2017-Aug-31 03:29N 51°56' E 004°12'0 0.0
2017-Aug-31 02:58N 51°56' E 004°12'0 0.0
2017-Aug-31 02:28N 51°56' E 004°12'0 0.0
2017-Aug-31 01:58N 51°56' E 004°12'0 0.0
2017-Aug-31 01:28N 51°56' E 004°12'0 0.0
2017-Aug-31 00:58N 51°56' E 004°12'0 0.0
2017-Aug-31 00:28N 51°56' E 004°12'0 0.0
2017-Aug-30 23:58N 51°56' E 004°12'0 0.0
2017-Aug-30 23:25N 51°56' E 004°12'0 0.0
2017-Aug-30 22:58N 51°56' E 004°12'0 0.0
2017-Aug-30 22:28N 51°56' E 004°12'0 0.0
2017-Aug-30 21:58N 51°56' E 004°12'0 0.0
2017-Aug-30 21:29N 51°56' E 004°12'0 0.0
2017-Aug-30 20:52N 51°56' E 004°12'0 0.0
2017-Aug-30 20:25N 51°56' E 004°12'0 0.0
2017-Aug-30 19:58N 51°56' E 004°12'0 0.0
2017-Aug-30 19:29N 51°56' E 004°12'0 0.0
2017-Aug-30 18:58N 51°56' E 004°12'0 0.0
2017-Aug-30 18:28N 51°56' E 004°12'0 0.0
2017-Aug-30 17:58N 51°56' E 004°12'0 0.0
2017-Aug-30 17:28N 51°56' E 004°12'0 0.0
2017-Aug-30 16:58N 51°56' E 004°12'0 0.0
2017-Aug-30 16:25N 51°56' E 004°12'0 0.0
2017-Aug-30 16:00N 51°56' E 004°12'1 1.7
2017-Aug-30 15:28N 51°55' E 004°13'0 0.0
2017-Aug-30 14:58N 51°55' E 004°13'0 0.0
2017-Aug-30 14:28N 51°55' E 004°13'0 0.0
2017-Aug-30 13:58N 51°55' E 004°13'0 0.0
2017-Aug-30 13:28N 51°55' E 004°13'0 0.0
2017-Aug-30 12:58N 51°55' E 004°13'0 0.0
2017-Aug-30 12:28N 51°55' E 004°13'0 0.0
2017-Aug-30 11:58N 51°55' E 004°13'0 0.0
2017-Aug-30 11:22N 51°55' E 004°13'0 0.0
2017-Aug-30 10:58N 51°55' E 004°13'0 0.0
2017-Aug-30 10:28N 51°55' E 004°13'0 0.0
2017-Aug-30 09:58N 51°55' E 004°13'0 0.0
2017-Aug-30 09:28N 51°55' E 004°13'0 0.0
2017-Aug-30 08:58N 51°55' E 004°13'0 0.0
2017-Aug-30 08:28N 51°55' E 004°13'0 0.0
2017-Aug-30 07:58N 51°55' E 004°13'0 0.0
2017-Aug-30 07:22N 51°55' E 004°13'0 0.0
2017-Aug-30 06:55N 51°55' E 004°13'0 0.0
2017-Aug-30 06:28N 51°55' E 004°13'0 0.0
2017-Aug-30 05:55N 51°55' E 004°13'0 0.0
2017-Aug-30 05:28N 51°55' E 004°13'0 0.0
2017-Aug-30 04:58N 51°55' E 004°13'0 0.0
2017-Aug-30 04:28N 51°55' E 004°13'0 0.0
2017-Aug-30 03:58N 51°55' E 004°13'0 0.0
2017-Aug-30 03:28N 51°55' E 004°13'0 0.0
2017-Aug-30 02:58N 51°55' E 004°13'0 0.0
2017-Aug-30 02:28N 51°55' E 004°13'0 0.0
2017-Aug-30 01:58N 51°55' E 004°13'0 0.0
2017-Aug-30 01:25N 51°55' E 004°13'0 0.0
2017-Aug-30 00:58N 51°55' E 004°13'0 0.0
2017-Aug-30 00:28N 51°55' E 004°13'0 0.0
2017-Aug-29 23:58N 51°55' E 004°13'0 0.0
2017-Aug-29 23:25N 51°55' E 004°13'0 0.0
2017-Aug-29 22:58N 51°55' E 004°13'0 0.0
2017-Aug-29 22:28N 51°55' E 004°13'0 0.0
2017-Aug-29 21:58N 51°55' E 004°13'0 0.0
2017-Aug-29 21:28N 51°55' E 004°13'0 0.0
2017-Aug-29 20:58N 51°55' E 004°13'0 0.0
2017-Aug-29 20:25N 51°55' E 004°13'0 0.9
2017-Aug-29 20:01N 51°55' E 004°13'3 6.8
2017-Aug-29 19:31N 51°58' E 004°08'611.8
2017-Aug-29 19:00N 51°60' E 003°60'612.8
2017-Aug-29 18:30N 52°00' E 003°49'612.1
2017-Aug-29 18:00N 51°58' E 003°40'612.7
2017-Aug-29 17:30N 51°56' E 003°30'4 7.6
2017-Aug-29 16:59N 51°54' E 003°25'0 0.1
2017-Aug-29 16:29N 51°54' E 003°25'0 0.0
2017-Aug-29 15:59N 51°54' E 003°25'0 0.0
2017-Aug-29 15:29N 51°54' E 003°25'0 0.0
2017-Aug-29 14:59N 51°54' E 003°25'0 0.0
2017-Aug-29 14:29N 51°54' E 003°25'0 0.0
2017-Aug-29 13:59N 51°54' E 003°25'0 0.0
2017-Aug-29 13:26N 51°54' E 003°25'0 0.0
2017-Aug-29 12:53N 51°54' E 003°25'0 0.0
2017-Aug-29 12:17N 51°54' E 003°25'0 0.1
2017-Aug-29 11:59N 51°54' E 003°25'0 0.0
2017-Aug-29 11:23N 51°54' E 003°25'0 0.1
2017-Aug-29 10:59N 51°54' E 003°25'0 0.2
2017-Aug-29 10:23N 51°54' E 003°25'0 0.1
2017-Aug-29 09:56N 51°54' E 003°25'0 0.0
2017-Aug-29 09:17N 51°54' E 003°25'0 0.0
2017-Aug-29 08:47N 51°54' E 003°25'0 0.0
2017-Aug-29 07:44N 51°54' E 003°25'0 0.0
2017-Aug-29 07:30N 51°54' E 003°25'0 0.0
2017-Aug-29 07:00N 51°54' E 003°25'0 0.0
2017-Aug-29 06:30N 51°54' E 003°25'0 0.0
2017-Aug-29 06:00N 51°54' E 003°25'0 0.0
2017-Aug-29 05:30N 51°54' E 003°25'0 0.1
2017-Aug-29 05:00N 51°54' E 003°25'0 0.3
2017-Aug-29 04:30N 51°54' E 003°25'0 0.0
2017-Aug-29 03:55N 51°54' E 003°25'0 0.0
2017-Aug-29 03:30N 51°54' E 003°25'0 0.0
2017-Aug-29 03:00N 51°54' E 003°25'0 0.0
2017-Aug-29 02:30N 51°54' E 003°25'0 0.0
2017-Aug-29 02:00N 51°54' E 003°25'0 0.0
2017-Aug-29 01:30N 51°54' E 003°25'0 0.0
2017-Aug-29 01:00N 51°54' E 003°25'0 0.0
2017-Aug-29 00:30N 51°54' E 003°25'0 0.0
2017-Aug-29 00:00N 51°54' E 003°25'0 0.0
2017-Aug-28 23:30N 51°54' E 003°25'0 0.1
2017-Aug-28 23:00N 51°54' E 003°25'0 0.1
2017-Aug-28 22:30N 51°54' E 003°25'0 0.1
2017-Aug-28 22:00N 51°54' E 003°25'0 0.0
2017-Aug-28 21:30N 51°54' E 003°25'0 0.1
2017-Aug-28 21:00N 51°54' E 003°25'0 0.0
2017-Aug-28 20:30N 51°54' E 003°25'0 0.0
2017-Aug-28 20:00N 51°54' E 003°25'0 0.0
2017-Aug-28 19:30N 51°54' E 003°25'0 0.0
2017-Aug-28 19:00N 51°54' E 003°25'0 0.0
2017-Aug-28 18:30N 51°54' E 003°25'0 0.0
2017-Aug-28 18:00N 51°54' E 003°25'0 0.0
2017-Aug-28 17:30N 51°54' E 003°25'0 0.0
2017-Aug-28 17:00N 51°54' E 003°25'2 3.8
2017-Aug-28 16:30N 51°54' E 003°22'712.9
2017-Aug-28 15:59N 51°52' E 003°12'713.7
2017-Aug-28 15:30N 51°50' E 003°01'713.4
2017-Aug-28 15:00N 51°48' E 002°51'713.1
2017-Aug-28 14:30N 51°46' E 002°41'612.2
2017-Aug-28 14:00N 51°43' E 002°33'612.4
2017-Aug-28 13:30N 51°38' E 002°26'612.1
2017-Aug-28 13:00N 51°34' E 002°20'611.8
2017-Aug-28 12:30N 51°29' E 002°13'611.7
2017-Aug-28 12:00N 51°25' E 002°07'612.1
2017-Aug-28 11:30N 51°19' E 002°07'611.6
2017-Aug-28 11:00N 51°13' E 002°04'510.9
2017-Aug-28 10:30N 51°11' E 001°56'611.6
2017-Aug-28 10:00N 51°08' E 001°48'611.5
2017-Aug-28 09:30N 51°05' E 001°41'611.8
2017-Aug-28 09:00N 51°00' E 001°35'612.4
2017-Aug-28 08:30N 50°56' E 001°28'612.5
2017-Aug-28 08:00N 50°50' E 001°24'713.1
2017-Aug-28 07:30N 50°44' E 001°22'612.7
2017-Aug-28 07:00N 50°39' E 001°15'713.3
2017-Aug-28 06:30N 50°34' E 001°07'913.0
2017-Aug-28 05:48N 50°29' E 000°55'413.1
2017-Aug-28 05:30N 50°28' E 000°50'713.0
2017-Aug-28 04:57N 50°26' E 000°39'612.9
2017-Aug-28 04:30N 50°25' E 000°30'613.0
2017-Aug-28 04:00N 50°23' E 000°20'713.1
2017-Aug-28 03:30N 50°21' E 000°10'713.5
2017-Aug-28 03:00N 50°19' E 000°00'713.9
2017-Aug-28 02:31N 50°17' W 000°10'714.3
2017-Aug-28 02:00N 50°15' W 000°21'714.9
2017-Aug-28 01:31N 50°13' W 000°32'815.4
2017-Aug-28 01:01N 50°11' W 000°44'815.8
2017-Aug-28 00:30N 50°09' W 000°56'816.0
2017-Aug-28 00:00N 50°06' W 001°07'816.2
2017-Aug-27 23:31N 50°04' W 001°19'816.4
2017-Aug-27 23:01N 50°02' W 001°32'815.9
2017-Aug-27 22:31N 50°01' W 001°44'815.8
2017-Aug-27 22:01N 49°59' W 001°56'815.3
2017-Aug-27 21:30N 49°57' W 002°07'714.4
2017-Aug-27 21:01N 49°55' W 002°18'713.8
2017-Aug-27 20:30N 49°53' W 002°29'713.4
2017-Aug-27 20:00N 49°52' W 002°39'713.2
2017-Aug-27 19:30N 49°50' W 002°48'612.8
2017-Aug-27 19:00N 49°47' W 002°57'612.6
2017-Aug-27 18:30N 49°44' W 003°06'612.5
2017-Aug-27 18:00N 49°41' W 003°14'  

Dump ship's entire track history